createdAt,value
2023-04-22T00:04:22.312Z,6.70
2023-04-22T00:09:26.432Z,6.60
2023-04-22T00:14:29.693Z,6.50
2023-04-22T00:19:34.438Z,6.50
2023-04-22T00:24:37.685Z,6.40
2023-04-22T00:29:41.319Z,6.30
2023-04-22T00:34:44.795Z,6.20
2023-04-22T00:39:48.520Z,6.10
2023-04-22T00:44:52.409Z,6.00
2023-04-22T00:49:55.690Z,5.90
2023-04-22T00:54:58.985Z,5.80
2023-04-22T01:00:02.855Z,5.70
2023-04-22T01:05:09.930Z,5.60
2023-04-22T01:10:13.354Z,5.50
2023-04-22T01:15:16.700Z,5.50
2023-04-22T01:20:19.878Z,5.40
2023-04-22T01:25:23.156Z,5.30
2023-04-22T01:30:26.517Z,5.20
2023-04-22T01:35:30.956Z,5.20
2023-04-22T01:40:34.706Z,5.10
2023-04-22T01:45:38.169Z,5.00
2023-04-22T01:50:41.507Z,4.80
2023-04-22T01:55:45.262Z,4.80
2023-04-22T02:00:48.705Z,4.70
2023-04-22T02:05:52.011Z,4.60
2023-04-22T02:10:55.340Z,4.50
2023-04-22T02:15:58.488Z,4.40
2023-04-22T02:21:01.782Z,4.40
2023-04-22T02:26:05.674Z,4.30
2023-04-22T02:31:08.951Z,4.30
2023-04-22T02:36:12.703Z,4.20
2023-04-22T02:41:16.011Z,4.10
2023-04-22T02:46:19.406Z,4.00
2023-04-22T02:51:23.931Z,3.90
2023-04-22T02:56:27.778Z,3.90
2023-04-22T03:01:31.465Z,3.90
2023-04-22T03:06:34.915Z,3.90
2023-04-22T03:11:38.150Z,3.90
2023-04-22T03:16:41.851Z,3.80
2023-04-22T03:21:45.301Z,3.80
2023-04-22T03:26:48.623Z,3.70
2023-04-22T03:31:51.951Z,3.60
2023-04-22T03:36:55.169Z,3.60
2023-04-22T03:41:58.311Z,3.50
2023-04-22T03:47:01.597Z,3.50
2023-04-22T03:52:05.440Z,3.40
2023-04-22T03:57:08.714Z,3.30
2023-04-22T04:02:12.337Z,3.40
2023-04-22T04:07:15.829Z,3.50
2023-04-22T04:12:19.190Z,3.50
2023-04-22T04:17:26.163Z,3.50
2023-04-22T04:22:29.627Z,3.60
2023-04-22T04:27:33.260Z,3.70
2023-04-22T04:32:37.195Z,3.80
2023-04-22T04:37:43.280Z,3.80
2023-04-22T04:42:46.474Z,3.90
2023-04-22T04:47:53.327Z,4.00
2023-04-22T04:52:56.490Z,4.10
2023-04-22T04:57:59.779Z,4.30
2023-04-22T05:03:03.256Z,4.40
2023-04-22T05:08:06.590Z,4.60
2023-04-22T05:13:09.827Z,4.80
2023-04-22T05:18:13.177Z,5.00
2023-04-22T05:23:16.777Z,5.20
2023-04-22T05:28:20.001Z,5.50
2023-04-22T05:33:23.167Z,5.70
2023-04-22T05:38:26.779Z,6.10
2023-04-22T05:43:29.981Z,6.40
2023-04-22T05:48:33.249Z,6.70
2023-04-22T05:53:36.464Z,7.00
2023-04-22T05:58:39.792Z,7.30
2023-04-22T06:03:43.339Z,7.60
2023-04-22T06:08:46.662Z,7.90
2023-04-22T06:13:49.904Z,8.10
2023-04-22T06:18:53.533Z,8.30
2023-04-22T06:23:56.810Z,8.70
2023-04-22T06:29:05.660Z,8.90
2023-04-22T06:34:08.914Z,9.30
2023-04-22T06:39:12.151Z,9.60
2023-04-22T06:44:15.679Z,9.90
2023-04-22T06:49:18.884Z,10.30
2023-04-22T06:54:22.036Z,10.50
2023-04-22T06:59:25.252Z,10.80
2023-04-22T07:04:29.789Z,11.00
2023-04-22T07:09:33.018Z,11.40
2023-04-22T07:14:36.320Z,11.50
2023-04-22T07:19:40.098Z,11.80
2023-04-22T07:24:43.643Z,12.10
2023-04-22T07:29:46.917Z,12.30
2023-04-22T07:34:50.279Z,12.70
2023-04-22T07:39:53.657Z,12.90
2023-04-22T07:44:56.848Z,13.30
2023-04-22T07:50:00.242Z,13.50
2023-04-22T07:55:03.705Z,13.70
2023-04-22T08:00:08.350Z,14.00
2023-04-22T08:05:11.994Z,14.30
2023-04-22T08:10:15.235Z,14.40
2023-04-22T08:15:18.654Z,14.60
2023-04-22T08:20:22.027Z,14.90
2023-04-22T08:25:25.335Z,15.00
2023-04-22T08:30:28.647Z,15.10
2023-04-22T08:35:32.455Z,15.20
2023-04-22T08:40:36.718Z,15.40
2023-04-22T08:45:41.122Z,15.50
2023-04-22T08:50:44.927Z,15.80
2023-04-22T08:55:50.915Z,16.00
2023-04-22T09:00:55.194Z,16.10
2023-04-22T09:05:59.845Z,16.30
2023-04-22T09:11:04.542Z,16.50
2023-04-22T09:16:11.054Z,16.60
2023-04-22T09:21:14.713Z,16.60
2023-04-22T09:26:23.923Z,16.70
2023-04-22T09:31:28.781Z,16.90
2023-04-22T09:36:41.223Z,17.20
2023-04-22T09:41:44.692Z,17.40
2023-04-22T09:46:51.719Z,17.60
2023-04-22T09:51:58.651Z,17.70
2023-04-22T09:57:02.986Z,17.90
2023-04-22T10:02:07.573Z,18.00
2023-04-22T10:07:11.115Z,18.10
2023-04-22T10:12:16.557Z,18.20
2023-04-22T10:17:22.323Z,18.40
2023-04-22T10:22:26.319Z,18.50
2023-04-22T10:27:29.823Z,18.50
2023-04-22T10:32:33.645Z,18.80
2023-04-22T10:37:37.540Z,19.40
2023-04-22T10:42:41.910Z,19.30
2023-04-22T10:47:45.854Z,19.40
2023-04-22T10:52:56.773Z,19.50
2023-04-22T10:58:00.301Z,19.50
2023-04-22T11:03:12.662Z,19.40
2023-04-22T11:08:21.106Z,19.30
2023-04-22T11:13:27.405Z,19.30
2023-04-22T11:18:33.064Z,19.20
2023-04-22T11:23:37.409Z,19.50
2023-04-22T11:28:47.124Z,19.80
2023-04-22T11:33:50.976Z,19.80
2023-04-22T11:38:58.083Z,19.80
2023-04-22T11:44:02.078Z,19.90
2023-04-22T11:49:17.842Z,19.90
2023-04-22T11:54:31.948Z,19.90
2023-04-22T11:59:35.878Z,19.90
2023-04-22T12:04:43.962Z,19.90
2023-04-22T12:09:47.216Z,20.00
2023-04-22T12:14:50.430Z,20.20
2023-04-22T12:19:57.515Z,20.20
2023-04-22T12:25:02.161Z,20.30
2023-04-22T12:30:06.587Z,20.40
2023-04-22T12:35:09.975Z,20.60
2023-04-22T12:40:13.715Z,20.60
2023-04-22T12:45:21.952Z,20.60
2023-04-22T12:50:28.198Z,20.50
2023-04-22T12:55:31.425Z,20.70
2023-04-22T13:00:35.003Z,20.60
2023-04-22T13:05:41.103Z,20.90
2023-04-22T13:10:46.994Z,21.40
2023-04-22T13:15:54.319Z,21.80
2023-04-22T13:21:01.175Z,21.70
2023-04-22T13:26:05.537Z,21.50
2023-04-22T13:31:11.693Z,21.60
2023-04-22T13:36:14.972Z,21.60
2023-04-22T13:41:22.374Z,21.50
2023-04-22T13:46:25.880Z,21.50
2023-04-22T13:51:29.793Z,21.60
2023-04-22T13:56:33.478Z,21.60
2023-04-22T14:01:38.322Z,21.40
2023-04-22T14:06:42.101Z,21.30
2023-04-22T14:11:45.463Z,21.40
2023-04-22T14:16:49.718Z,21.80
2023-04-22T14:21:53.420Z,21.80
2023-04-22T14:27:01.953Z,21.80
2023-04-22T14:32:05.294Z,22.10
2023-04-22T14:37:08.755Z,22.90
2023-04-22T14:42:12.494Z,24.20
2023-04-22T14:47:16.005Z,24.40
2023-04-22T14:52:19.724Z,24.30
2023-04-22T14:57:23.130Z,25.40
2023-04-22T15:02:26.508Z,26.20
2023-04-22T15:07:30.470Z,27.20
2023-04-22T15:12:33.731Z,28.50
2023-04-22T15:17:37.110Z,30.60
2023-04-22T15:22:43.879Z,31.30
2023-04-22T15:27:47.926Z,31.10
2023-04-22T15:32:51.215Z,30.60
2023-04-22T15:37:54.700Z,29.90
2023-04-22T15:42:58.030Z,29.60
2023-04-22T15:48:01.589Z,29.40
2023-04-22T15:53:05.217Z,29.00
2023-04-22T15:58:08.372Z,28.90
2023-04-22T16:03:11.998Z,28.70
2023-04-22T16:08:15.492Z,28.50
2023-04-22T16:13:19.530Z,28.50
2023-04-22T16:18:22.835Z,28.70
2023-04-22T16:23:26.431Z,29.00
2023-04-22T16:28:29.776Z,29.30
2023-04-22T16:33:34.347Z,28.90
2023-04-22T16:38:37.623Z,28.50
2023-04-22T16:43:41.426Z,27.20
2023-04-22T16:48:45.357Z,26.50
2023-04-22T16:53:48.588Z,26.70
2023-04-22T16:58:52.156Z,27.20
2023-04-22T17:03:56.033Z,27.40
2023-04-22T17:09:01.504Z,27.20
2023-04-22T17:14:05.393Z,27.00
2023-04-22T17:19:08.687Z,26.60
2023-04-22T17:24:14.206Z,25.30
2023-04-22T17:29:22.038Z,24.00
2023-04-22T17:34:25.794Z,23.10
2023-04-22T17:39:29.096Z,22.80
2023-04-22T17:44:32.625Z,22.30
2023-04-22T17:49:36.055Z,21.60
2023-04-22T17:54:39.305Z,20.90
2023-04-22T17:59:43.314Z,20.20
2023-04-22T18:04:47.473Z,19.60
2023-04-22T18:09:51.752Z,18.80
2023-04-22T18:14:56.792Z,18.00
2023-04-22T18:20:13.814Z,17.50
2023-04-22T18:25:21.014Z,17.00
2023-04-22T18:30:25.589Z,16.60
2023-04-22T18:35:29.053Z,16.10
2023-04-22T18:40:32.812Z,15.70
2023-04-22T18:45:37.180Z,15.40
2023-04-22T18:50:41.544Z,15.00
2023-04-22T18:55:45.256Z,14.80
2023-04-22T19:00:51.896Z,14.50
2023-04-22T19:05:55.516Z,14.20
2023-04-22T19:10:59.320Z,14.00
2023-04-22T19:16:03.868Z,13.80
2023-04-22T19:21:08.320Z,13.50
2023-04-22T19:26:14.643Z,13.30
2023-04-22T19:31:19.238Z,13.10
2023-04-22T19:36:23.025Z,12.90
2023-04-22T19:41:27.844Z,12.70
2023-04-22T19:46:32.141Z,12.60
2023-04-22T19:51:36.332Z,12.30
2023-04-22T19:56:42.132Z,12.20
2023-04-22T20:01:47.004Z,12.00
2023-04-22T20:06:54.241Z,11.90
2023-04-22T20:12:00.060Z,11.70
2023-04-22T20:17:04.889Z,11.50
2023-04-22T20:22:11.561Z,11.40
2023-04-22T20:27:17.613Z,11.30
2023-04-22T20:32:21.553Z,11.10
2023-04-22T20:37:26.580Z,11.00
2023-04-22T20:42:30.936Z,10.90
2023-04-22T20:47:36.037Z,10.70
2023-04-22T20:52:41.014Z,10.60
2023-04-22T20:57:44.260Z,10.50
2023-04-22T21:02:48.099Z,10.40
2023-04-22T21:07:53.416Z,10.20
2023-04-22T21:12:58.154Z,10.10
2023-04-22T21:18:03.694Z,9.90
2023-04-22T21:23:08.261Z,9.70
2023-04-22T21:28:11.956Z,9.50
2023-04-22T21:33:15.824Z,9.50
2023-04-22T21:38:20.161Z,9.40
2023-04-22T21:43:23.807Z,9.30
2023-04-22T21:48:27.080Z,9.20
2023-04-22T21:53:30.341Z,9.20
2023-04-22T21:58:33.898Z,9.10
2023-04-22T22:03:37.379Z,9.00
2023-04-22T22:08:41.662Z,9.00
2023-04-22T22:13:48.819Z,8.90
2023-04-22T22:18:52.172Z,8.80
2023-04-22T22:23:55.472Z,8.70
2023-04-22T22:28:58.617Z,8.60
2023-04-22T22:34:01.712Z,8.50
2023-04-22T22:39:05.934Z,8.50
2023-04-22T22:44:09.564Z,8.40
2023-04-22T22:49:13.583Z,8.20
2023-04-22T22:54:17.499Z,8.10
2023-04-22T22:59:20.826Z,7.90
2023-04-22T23:04:24.652Z,7.80
2023-04-22T23:09:28.196Z,7.80
2023-04-22T23:14:33.262Z,7.80
2023-04-22T23:19:36.644Z,7.70
2023-04-22T23:24:40.726Z,7.60
2023-04-22T23:29:44.735Z,7.50
2023-04-22T23:34:50.287Z,7.50
2023-04-22T23:39:53.420Z,7.40
2023-04-22T23:44:57.053Z,7.30
2023-04-22T23:50:00.346Z,7.20
2023-04-22T23:55:05.383Z,7.10
